Time;durP1;ratioP1;P1;durP2;ratioP2;P2;SDS_P1;SDS_P2;PMS_P1;PMS_P2;Temp;Humidity;BMP_temperature;BMP_pressure;BME280_temperature;BME280_humidity;BME280_pressure;Samples;Min_cycle;Max_cycle;Signal;HPM_P1;HPM_P2
2023/11/06 00:01:16;;;;;;;2.90;0.60;;;;;;;13.70;52.58;99407.41;107526;1252;112633;-63
2023/11/06 00:03:44;;;;;;;1.30;0.30;;;;;;;13.66;52.60;99410.36;107532;1253;110218;-63
2023/11/06 00:06:12;;;;;;;2.20;0.80;;;;;;;13.68;52.39;99413.94;107565;1253;108278;-63
2023/11/06 00:08:40;;;;;;;1.30;0.60;;;;;;;13.71;52.27;99419.86;107559;1253;99261;-62
2023/11/06 00:11:09;;;;;;;2.00;0.60;;;;;;;13.73;52.23;99433.26;107661;1253;99174;-63
2023/11/06 00:13:38;;;;;;;6.10;0.70;;;;;;;13.74;52.25;99436.52;107641;1251;112796;-62
2023/11/06 00:16:07;;;;;;;1.30;0.40;;;;;;;13.73;52.46;99446.98;107579;1253;109263;-63
2023/11/06 00:18:50;;;;;;;;;;;;;;;13.66;52.39;99446.60;107552;1255;107721;-63
2023/11/06 00:21:18;;;;;;;2.60;0.30;;;;;;;13.62;52.61;99452.30;107550;1255;99889;-63
2023/11/06 00:23:46;;;;;;;7.50;0.60;;;;;;;13.56;52.72;99459.66;107662;1253;99182;-63
2023/11/06 00:26:15;;;;;;;2.80;0.40;;;;;;;13.46;53.07;99465.55;107523;1255;112957;-63
2023/11/06 00:28:49;;;;;;;2.40;0.50;;;;;;;13.33;53.38;99466.77;107548;1254;109667;-63
2023/11/06 00:31:17;;;;;;;3.60;0.60;;;;;;;13.22;53.66;99471.96;107581;1255;107165;-63
2023/11/06 00:33:46;;;;;;;1.50;0.70;;;;;;;13.12;54.10;99472.98;107645;1250;99263;-63
2023/11/06 00:36:19;;;;;;;9.30;0.90;;;;;;;13.04;54.50;99477.46;107569;1255;99094;-63
2023/11/06 00:38:47;;;;;;;3.90;0.60;;;;;;;12.94;54.71;99482.42;107547;1255;112911;-64
2023/11/06 00:41:17;;;;;;;1.10;0.40;;;;;;;12.84;54.85;99484.26;107559;1253;110004;-63
2023/11/06 00:43:45;;;;;;;3.50;0.40;;;;;;;12.78;54.86;99493.98;107446;1253;107721;-64
2023/11/06 00:46:14;;;;;;;1.30;0.50;;;;;;;12.75;55.07;99497.98;107536;1254;99166;-63
2023/11/06 00:48:42;;;;;;;4.60;0.30;;;;;;;12.72;55.20;99505.95;107586;1256;99176;-63
2023/11/06 00:51:11;;;;;;;4.00;0.60;;;;;;;12.71;55.19;99510.12;107587;1253;113181;-63
2023/11/06 00:53:40;;;;;;;4.20;0.60;;;;;;;12.68;55.26;99510.58;107569;1253;109628;-63
2023/11/06 00:56:08;;;;;;;2.10;0.50;;;;;;;12.60;55.53;99513.54;107538;1254;108352;-62
2023/11/06 00:58:37;;;;;;;6.70;0.90;;;;;;;12.50;55.62;99517.39;107570;1253;99327;-63
2023/11/06 01:01:06;;;;;;;1.90;0.70;;;;;;;12.41;55.99;99515.92;107570;1255;99785;-63
2023/11/06 01:03:34;;;;;;;1.30;0.40;;;;;;;12.32;56.12;99518.52;107590;1255;113553;-62
2023/11/06 01:06:03;;;;;;;4.30;0.70;;;;;;;12.28;56.40;99522.05;107521;1253;109286;-62
2023/11/06 01:08:31;;;;;;;0.50;0.40;;;;;;;12.26;56.68;99526.98;107416;1257;108571;-63
2023/11/06 01:11:00;;;;;;;0.40;0.40;;;;;;;12.26;56.63;99528.13;107589;1251;99221;-64
2023/11/06 01:13:29;;;;;;;0.60;0.60;;;;;;;12.25;56.45;99528.20;107617;1251;99058;-63
2023/11/06 01:15:57;;;;;;;4.70;1.00;;;;;;;12.22;56.66;99528.36;107611;1254;113266;-63
2023/11/06 01:18:25;;;;;;;8.80;0.90;;;;;;;12.16;56.61;99527.82;107619;1251;109789;-62
2023/11/06 01:20:54;;;;;;;4.30;0.70;;;;;;;12.11;56.75;99531.92;107600;1255;107761;-63
2023/11/06 01:23:23;;;;;;;3.70;0.80;;;;;;;12.05;57.04;99539.80;107555;1251;99230;-64
2023/11/06 01:25:51;;;;;;;1.00;0.90;;;;;;;11.97;57.32;99538.85;107492;1256;99720;-63
2023/11/06 01:28:19;;;;;;;4.70;0.70;;;;;;;11.89;57.47;99538.03;107619;1251;112328;-64
2023/11/06 01:30:48;;;;;;;2.40;0.70;;;;;;;11.81;57.64;99534.62;107663;1252;109189;-63
2023/11/06 01:33:16;;;;;;;3.40;0.80;;;;;;;11.73;57.98;99544.66;107631;1255;107253;-63
2023/11/06 01:35:45;;;;;;;2.00;0.70;;;;;;;11.64;58.20;99549.94;107541;1254;99199;-62
2023/11/06 01:38:13;;;;;;;8.20;0.50;;;;;;;11.56;58.57;99552.83;107501;1256;99689;-63
2023/11/06 01:40:42;;;;;;;1.90;0.70;;;;;;;11.51;58.75;99555.57;107541;1251;112621;-64
2023/11/06 01:43:11;;;;;;;5.20;0.70;;;;;;;11.50;58.86;99564.80;107655;1255;109670;-63
2023/11/06 01:45:40;;;;;;;1.50;0.60;;;;;;;11.51;58.79;99567.89;107563;1251;109359;-62
2023/11/06 01:48:09;;;;;;;1.40;0.40;;;;;;;11.52;58.91;99576.56;107546;1256;99299;-62
2023/11/06 01:50:39;;;;;;;5.10;0.90;;;;;;;11.49;59.31;99581.46;107609;1256;99047;-63
2023/11/06 01:53:10;;;;;;;10.00;0.90;;;;;;;11.42;59.58;99583.66;107562;1254;113590;-62
2023/11/06 01:55:42;;;;;;;2.40;0.60;;;;;;;11.35;60.18;99583.91;107546;1251;109262;-62
2023/11/06 01:58:13;;;;;;;2.20;0.50;;;;;;;11.25;60.50;99585.49;107536;1256;106673;-62
2023/11/06 02:00:45;;;;;;;4.90;0.60;;;;;;;11.18;60.81;99588.77;107549;1253;99045;-64
2023/11/06 02:03:14;;;;;;;6.90;0.80;;;;;;;11.15;61.17;99591.53;107568;1256;99695;-63
2023/11/06 02:05:44;;;;;;;13.40;0.90;;;;;;;11.08;61.90;99596.65;107557;1256;112616;-63
2023/11/06 02:08:15;;;;;;;4.30;0.90;;;;;;;11.00;61.88;99597.19;107632;1251;108747;-64
2023/11/06 02:10:45;;;;;;;5.80;0.60;;;;;;;10.95;62.03;99601.02;107477;1251;106489;-63
2023/11/06 02:13:13;;;;;;;6.90;1.00;;;;;;;10.92;62.34;99600.95;107544;1256;99264;-63
2023/11/06 02:15:41;;;;;;;1.90;0.60;;;;;;;10.90;62.50;99600.95;107626;1251;99767;-64
2023/11/06 02:18:10;;;;;;;8.50;0.80;;;;;;;10.86;62.71;99606.46;107589;1254;113164;-63
2023/11/06 02:20:39;;;;;;;7.80;0.80;;;;;;;10.82;63.15;99612.40;107616;1254;109675;-63
2023/11/06 02:23:08;;;;;;;2.10;0.80;;;;;;;10.76;63.34;99615.36;107563;1257;108883;-64
2023/11/06 02:25:38;;;;;;;7.00;0.70;;;;;;;10.71;63.28;99619.15;107495;1254;99217;-63
2023/11/06 02:28:07;;;;;;;7.50;1.20;;;;;;;10.69;63.76;99625.84;107585;1257;99203;-63
2023/11/06 02:30:39;;;;;;;1.60;0.60;;;;;;;10.65;64.15;99626.94;107592;1251;113503;-66
2023/11/06 02:33:07;;;;;;;5.60;0.80;;;;;;;10.58;64.02;99631.49;107563;1255;108762;-63
2023/11/06 02:35:39;;;;;;;5.00;0.80;;;;;;;10.54;64.28;99633.88;107567;1251;108893;-62
2023/11/06 02:38:08;;;;;;;7.20;1.00;;;;;;;10.51;64.24;99639.92;107553;1251;99200;-63
2023/11/06 02:40:36;;;;;;;8.60;1.10;;;;;;;10.51;64.20;99639.10;107568;1254;99065;-63
2023/11/06 02:43:05;;;;;;;6.50;0.90;;;;;;;10.51;64.45;99642.84;107460;1251;113418;-62
2023/11/06 02:45:33;;;;;;;4.20;0.80;;;;;;;10.49;64.46;99652.68;107610;1251;109883;-63
2023/11/06 02:48:02;;;;;;;4.70;1.60;;;;;;;10.46;64.54;99663.02;107600;1251;107524;-64
2023/11/06 02:50:31;;;;;;;9.20;1.20;;;;;;;10.44;64.55;99671.91;107457;1251;99256;-63
2023/11/06 02:53:00;;;;;;;4.50;1.40;;;;;;;10.41;64.53;99678.23;107603;1256;99697;-63
2023/11/06 02:55:28;;;;;;;7.50;1.30;;;;;;;10.38;64.60;99683.65;107495;1251;112573;-63
2023/11/06 02:57:58;;;;;;;4.90;1.00;;;;;;;10.38;64.85;99691.36;107580;1256;108819;-64
2023/11/06 03:00:27;;;;;;;8.80;0.90;;;;;;;10.38;64.94;99693.70;107483;1251;108593;-62
2023/11/06 03:02:55;;;;;;;6.90;0.90;;;;;;;10.36;65.03;99694.34;107503;1254;99068;-63
2023/11/06 03:05:24;;;;;;;5.80;0.60;;;;;;;10.33;65.00;99691.23;107599;1254;99704;-63
2023/11/06 03:07:52;;;;;;;7.30;1.10;;;;;;;10.29;64.93;99696.36;107604;1251;112812;-63
2023/11/06 03:10:21;;;;;;;3.60;1.00;;;;;;;10.24;65.07;99702.95;107525;1255;109654;-62
2023/11/06 03:12:49;;;;;;;9.90;1.40;;;;;;;10.19;65.16;99704.17;107615;1255;107384;-63
2023/11/06 03:15:17;;;;;;;8.70;0.90;;;;;;;10.15;65.17;99710.09;107566;1254;99230;-63
2023/11/06 03:17:47;;;;;;;11.90;1.30;;;;;;;10.11;64.99;99710.61;107579;1254;99166;-63
2023/11/06 03:20:15;;;;;;;6.20;0.70;;;;;;;10.09;65.24;99707.37;107557;1256;115781;-64
2023/11/06 03:22:43;;;;;;;8.90;0.80;;;;;;;10.09;65.46;99712.20;107595;1254;108548;-63
2023/11/06 03:25:11;;;;;;;6.10;1.30;;;;;;;10.10;65.61;99721.56;107636;1251;108207;-64
2023/11/06 03:27:40;;;;;;;11.50;0.90;;;;;;;10.12;65.87;99723.02;107607;1251;99269;-64
2023/11/06 03:30:09;;;;;;;13.30;1.50;;;;;;;10.15;65.88;99717.65;107467;1251;99717;-63
2023/11/06 03:32:38;;;;;;;7.60;1.30;;;;;;;10.16;66.12;99718.80;107569;1254;113492;-63
2023/11/06 03:35:07;;;;;;;7.20;1.00;;;;;;;10.16;65.91;99715.01;107597;1254;109196;-62
2023/11/06 03:37:35;;;;;;;7.90;1.20;;;;;;;10.17;66.22;99711.35;107593;1251;107168;-63
2023/11/06 03:40:04;;;;;;;3.00;1.20;;;;;;;10.17;66.22;99714.88;107526;1254;99221;-63
2023/11/06 03:42:32;;;;;;;2.80;1.00;;;;;;;10.18;66.38;99717.50;107615;1256;99165;-63
2023/11/06 03:45:00;;;;;;;5.80;0.90;;;;;;;10.19;66.61;99724.23;107594;1251;113273;-64
2023/11/06 03:47:29;;;;;;;5.50;1.00;;;;;;;10.15;66.67;99724.40;107586;1254;108987;-63
2023/11/06 03:49:58;;;;;;;5.20;1.10;;;;;;;10.15;67.24;99723.02;107510;1256;106829;-64
2023/11/06 03:52:27;;;;;;;3.80;1.00;;;;;;;10.14;67.12;99720.06;107593;1253;99205;-62
2023/11/06 03:54:55;;;;;;;11.50;1.10;;;;;;;10.12;67.12;99725.84;107541;1257;99810;-64
2023/11/06 03:57:23;;;;;;;5.50;0.90;;;;;;;10.14;67.37;99736.73;107625;1253;113671;-64
2023/11/06 03:59:52;;;;;;;4.10;0.80;;;;;;;10.18;67.49;99737.63;107555;1252;110483;-63
2023/11/06 04:02:20;;;;;;;2.50;1.10;;;;;;;10.23;67.59;99741.44;107587;1254;108100;-64
2023/11/06 04:04:48;;;;;;;4.20;0.60;;;;;;;10.25;67.51;99748.58;107584;1254;99065;-63
2023/11/06 04:07:16;;;;;;;1.50;0.90;;;;;;;10.27;67.53;99757.14;107604;1257;99248;-64
2023/11/06 04:09:45;;;;;;;5.90;0.90;;;;;;;10.26;67.39;99763.08;107626;1251;113262;-65
2023/11/06 04:12:13;;;;;;;3.60;1.00;;;;;;;10.26;67.41;99772.83;107641;1251;109714;-64
2023/11/06 04:14:42;;;;;;;6.90;1.40;;;;;;;10.25;67.58;99779.36;107541;1251;108699;-63
2023/11/06 04:17:10;;;;;;;4.60;1.00;;;;;;;10.25;67.60;99778.48;107442;1254;99351;-63
2023/11/06 04:19:38;;;;;;;5.90;1.30;;;;;;;10.25;67.61;99776.84;107606;1255;99192;-63
2023/11/06 04:22:07;;;;;;;8.80;1.00;;;;;;;10.26;67.98;99780.38;107572;1256;113678;-62
2023/11/06 04:24:36;;;;;;;6.70;1.90;;;;;;;10.26;68.02;99786.19;107606;1254;109610;-63
2023/11/06 04:27:04;;;;;;;31.20;13.30;;;;;;;10.32;67.74;99785.48;107607;1251;108595;-63
2023/11/06 04:29:33;;;;;;;11.60;4.60;;;;;;;10.38;67.53;99785.73;107614;1251;99153;-62
2023/11/06 04:32:01;;;;;;;18.50;8.40;;;;;;;10.43;67.40;99795.05;107491;1253;99740;-62
2023/11/06 04:34:30;;;;;;;4.70;1.30;;;;;;;10.47;67.35;99802.08;107613;1251;113489;-62
2023/11/06 04:36:58;;;;;;;9.60;2.30;;;;;;;10.46;67.47;99801.40;107664;1251;109751;-63
2023/11/06 04:39:26;;;;;;;7.20;1.80;;;;;;;10.44;67.61;99802.49;107621;1253;107352;-62
2023/11/06 04:41:54;;;;;;;14.30;6.80;;;;;;;10.49;67.60;99809.72;107600;1251;99217;-62
2023/11/06 04:44:23;;;;;;;4.70;1.90;;;;;;;10.59;67.13;99814.10;107660;1251;99069;-63
2023/11/06 04:46:52;;;;;;;18.90;4.10;;;;;;;10.68;66.65;99819.09;107596;1251;112733;-63
2023/11/06 04:49:20;;;;;;;8.80;1.20;;;;;;;10.73;66.47;99821.95;107600;1251;110706;-63
2023/11/06 04:51:49;;;;;;;8.00;1.00;;;;;;;10.69;66.32;99837.05;107619;1251;107610;-66
2023/11/06 04:54:19;;;;;;;10.10;1.30;;;;;;;10.62;66.18;99844.98;107580;1251;99312;-62
2023/11/06 04:56:48;;;;;;;4.60;1.10;;;;;;;10.56;66.33;99853.89;107598;1253;99169;-63
2023/11/06 04:59:17;;;;;;;3.80;1.50;;;;;;;10.53;66.48;99849.51;107407;1254;113634;-61
2023/11/06 05:01:45;;;;;;;7.30;1.80;;;;;;;10.51;66.71;99852.17;107560;1251;109350;-63
2023/11/06 05:04:13;;;;;;;7.90;2.20;;;;;;;10.53;66.71;99849.81;107586;1251;108130;-63
2023/11/06 05:06:42;;;;;;;9.50;1.80;;;;;;;10.63;66.54;99852.41;107647;1251;99872;-63
2023/11/06 05:09:10;;;;;;;7.60;1.80;;;;;;;10.74;66.35;99851.06;107617;1251;99274;-62
2023/11/06 05:11:39;;;;;;;14.80;2.00;;;;;;;10.78;66.26;99839.86;107607;1251;112036;-62
2023/11/06 05:14:07;;;;;;;34.30;3.30;;;;;;;10.82;66.43;99836.58;107555;1253;108625;-62
2023/11/06 05:16:36;;;;;;;9.30;1.70;;;;;;;10.89;66.52;99843.24;107572;1256;107536;-62
2023/11/06 05:19:05;;;;;;;13.90;2.50;;;;;;;10.96;66.07;99836.27;107548;1251;99159;-61
2023/11/06 05:21:33;;;;;;;27.30;2.90;;;;;;;11.07;66.58;99845.27;107627;1251;99188;-62
2023/11/06 05:24:02;;;;;;;16.20;2.10;;;;;;;11.16;66.60;99853.13;107579;1250;112661;-62
2023/11/06 05:26:30;;;;;;;12.00;2.50;;;;;;;11.20;66.56;99864.06;107580;1251;110906;-62
2023/11/06 05:28:59;;;;;;;6.00;2.40;;;;;;;11.28;66.73;99872.16;107564;1254;108211;-62
2023/11/06 05:31:29;;;;;;;10.90;3.80;;;;;;;11.38;65.84;99880.50;107600;1249;99169;-61
2023/11/06 05:33:58;;;;;;;19.30;5.40;;;;;;;11.48;64.73;99883.77;107560;1250;99871;-63
2023/11/06 05:36:28;;;;;;;8.90;3.10;;;;;;;11.61;64.25;99885.95;107580;1254;113308;-62
2023/11/06 05:38:57;;;;;;;10.40;2.20;;;;;;;11.72;63.64;99897.29;107550;1254;108753;-63
2023/11/06 05:41:25;;;;;;;7.80;3.10;;;;;;;11.82;63.04;99907.72;107595;1251;108436;-62
2023/11/06 05:43:55;;;;;;;8.60;3.00;;;;;;;11.93;62.32;99904.30;107579;1251;99084;-62
2023/11/06 05:46:24;;;;;;;11.70;3.20;;;;;;;12.02;61.91;99916.47;107647;1255;99713;-62
2023/11/06 05:48:53;;;;;;;8.50;2.50;;;;;;;12.11;61.96;99919.42;107599;1253;112777;-60
2023/11/06 05:51:22;;;;;;;8.00;2.60;;;;;;;12.18;61.47;99926.20;107631;1254;109863;-61
2023/11/06 05:53:50;;;;;;;13.30;5.60;;;;;;;12.24;61.61;99934.39;107662;1250;108522;-62
2023/11/06 05:56:18;;;;;;;16.00;3.00;;;;;;;12.27;61.42;99937.73;107590;1254;99260;-62
2023/11/06 05:58:47;;;;;;;18.00;2.30;;;;;;;12.26;61.66;99944.91;107638;1251;99285;-62
2023/11/06 06:01:16;;;;;;;15.40;2.60;;;;;;;12.25;62.28;99947.40;107602;1251;112575;-62
2023/11/06 06:03:45;;;;;;;12.20;2.90;;;;;;;12.22;62.73;99947.13;107599;1254;109541;-63
2023/11/06 06:06:16;;;;;;;8.80;2.70;;;;;;;12.19;62.88;99962.42;107642;1254;107277;-63
2023/11/06 06:08:45;;;;;;;18.70;2.50;;;;;;;12.16;62.61;99971.33;107595;1251;99074;-62
2023/11/06 06:11:13;;;;;;;12.20;2.50;;;;;;;12.18;63.03;99981.71;107626;1251;99074;-63
2023/11/06 06:13:43;;;;;;;10.50;2.20;;;;;;;12.20;64.00;99989.27;107669;1251;113550;-63
2023/11/06 06:16:12;;;;;;;9.50;2.20;;;;;;;12.23;63.57;99988.26;107613;1250;109940;-63
2023/11/06 06:18:41;;;;;;;4.00;1.60;;;;;;;12.25;61.63;99993.73;107591;1253;106876;-62
2023/11/06 06:21:09;;;;;;;6.40;2.30;;;;;;;12.35;60.13;99989.15;107624;1253;99185;-62
2023/11/06 06:23:38;;;;;;;6.30;2.60;;;;;;;12.44;59.49;99996.74;107618;1255;99692;-62
2023/11/06 06:26:06;;;;;;;7.40;1.70;;;;;;;12.50;59.42;100009.92;107649;1253;112013;-63
2023/11/06 06:28:36;;;;;;;13.60;1.90;;;;;;;12.56;59.49;100018.33;107661;1251;110074;-63
2023/11/06 06:31:05;;;;;;;7.70;1.60;;;;;;;12.57;59.70;100021.61;107598;1256;108218;-63
2023/11/06 06:33:33;;;;;;;7.60;2.20;;;;;;;12.58;58.87;100029.77;107571;1254;99090;-62
2023/11/06 06:36:02;;;;;;;11.00;2.10;;;;;;;12.63;58.82;100029.89;107617;1251;99163;-63
2023/11/06 06:38:30;;;;;;;8.50;1.90;;;;;;;12.67;58.69;100032.73;107604;1254;112675;-62
2023/11/06 06:40:59;;;;;;;10.70;2.80;;;;;;;12.73;58.24;100032.80;107585;1253;109261;-62
2023/11/06 06:43:29;;;;;;;10.80;2.30;;;;;;;12.80;57.56;100030.48;107495;1253;108493;-62
2023/11/06 06:45:57;;;;;;;8.10;1.80;;;;;;;12.85;57.20;100036.41;107515;1253;99201;-62
2023/11/06 06:48:25;;;;;;;12.20;2.20;;;;;;;12.91;56.95;100042.21;107650;1251;99275;-60
2023/11/06 06:50:54;;;;;;;22.90;2.70;;;;;;;13.00;56.51;100046.13;107483;1251;112832;-61
2023/11/06 06:53:22;;;;;;;12.80;2.10;;;;;;;13.06;56.55;100047.56;107480;1254;110538;-60
2023/11/06 06:55:51;;;;;;;12.20;2.10;;;;;;;13.12;56.62;100048.30;107520;1254;107045;-60
2023/11/06 06:58:21;;;;;;;5.10;2.00;;;;;;;13.20;56.29;100050.15;107562;1253;99179;-62
2023/11/06 07:00:49;;;;;;;6.80;1.80;;;;;;;13.26;56.24;100055.77;107454;1253;99103;-62
2023/11/06 07:03:18;;;;;;;12.30;1.80;;;;;;;13.35;56.11;100059.48;107452;1253;113141;-62
2023/11/06 07:05:47;;;;;;;7.00;2.00;;;;;;;13.42;55.78;100066.45;107458;1254;108494;-63
2023/11/06 07:08:16;;;;;;;4.80;2.30;;;;;;;13.53;55.32;100070.35;107373;1254;110575;-62
2023/11/06 07:10:44;;;;;;;13.70;2.60;;;;;;;13.61;55.17;100080.80;107398;1254;99189;-63
2023/11/06 07:13:13;;;;;;;5.60;2.20;;;;;;;13.68;54.93;100083.38;107429;1254;99170;-62
2023/11/06 07:15:42;;;;;;;14.40;2.70;;;;;;;13.77;54.36;100088.02;107382;1251;112755;-62
2023/11/06 07:18:10;;;;;;;9.00;2.20;;;;;;;13.86;54.37;100089.66;107465;1252;108632;-62
2023/11/06 07:20:39;;;;;;;9.20;1.50;;;;;;;13.97;54.15;100094.58;107472;1251;108998;-63
2023/11/06 07:23:07;;;;;;;6.40;1.60;;;;;;;14.08;53.78;100098.56;107502;1251;99185;-63
2023/11/06 07:25:36;;;;;;;8.30;2.10;;;;;;;14.19;53.41;100103.76;107479;1253;99218;-63
2023/11/06 07:28:05;;;;;;;7.30;2.60;;;;;;;14.30;53.15;100106.35;107561;1254;112682;-62
2023/11/06 07:30:33;;;;;;;12.10;1.80;;;;;;;14.39;53.35;100104.23;107438;1251;109070;-62
2023/11/06 07:33:02;;;;;;;12.20;1.70;;;;;;;14.49;52.77;100106.86;107390;1251;107728;-63
2023/11/06 07:35:31;;;;;;;16.10;2.10;;;;;;;14.59;52.47;100108.58;107553;1255;99182;-62
2023/11/06 07:37:59;;;;;;;9.20;1.90;;;;;;;14.74;52.21;100112.98;107590;1251;99189;-62
2023/11/06 07:40:27;;;;;;;14.60;2.40;;;;;;;14.88;51.17;100110.45;107636;1253;113560;-62
2023/11/06 07:42:58;;;;;;;6.90;2.50;;;;;;;15.02;51.09;100099.10;107676;1251;109987;-62
2023/11/06 07:45:26;;;;;;;12.40;2.30;;;;;;;15.18;51.14;100102.70;107594;1255;107105;-63
2023/11/06 07:48:01;;;;;;;9.90;2.00;;;;;;;15.34;51.46;100106.21;107574;1253;99285;-63
2023/11/06 07:50:32;;;;;;;11.60;2.60;;;;;;;15.48;51.43;100107.97;107654;1253;99803;-63
2023/11/06 07:53:03;;;;;;;4.20;1.70;;;;;;;15.63;51.21;100103.27;107429;1251;112878;-63
2023/11/06 07:55:32;;;;;;;6.00;1.90;;;;;;;15.79;51.58;100106.52;107597;1250;109610;-63
2023/11/06 07:58:00;;;;;;;10.00;2.00;;;;;;;15.95;51.10;100112.44;107628;1251;107790;-63
2023/11/06 08:00:29;;;;;;;6.60;1.70;;;;;;;16.13;50.32;100114.42;107547;1251;99289;-63
2023/11/06 08:03:14;;;;;;;14.30;1.70;;;;;;;16.37;48.84;100116.73;107551;1253;99178;-62
2023/11/06 08:05:42;;;;;;;4.40;1.30;;;;;;;16.59;47.89;100124.20;107630;1253;113723;-63
2023/11/06 08:08:12;;;;;;;2.40;0.80;;;;;;;16.80;47.47;100118.83;107639;1251;108912;-63
2023/11/06 08:10:40;;;;;;;4.70;0.90;;;;;;;17.00;46.60;100114.29;107638;1255;107728;-63
2023/11/06 08:13:08;;;;;;;5.60;0.90;;;;;;;17.21;44.57;100121.67;107618;1254;99269;-63
2023/11/06 08:15:36;;;;;;;8.00;1.00;;;;;;;17.40;45.31;100126.84;107597;1251;99322;-63
2023/11/06 08:18:05;;;;;;;2.90;0.80;;;;;;;17.58;43.74;100132.50;107623;1251;113080;-62
2023/11/06 08:20:34;;;;;;;4.80;0.80;;;;;;;17.76;42.89;100137.31;107662;1254;109718;-63
2023/11/06 08:23:02;;;;;;;1.90;0.50;;;;;;;17.94;43.16;100136.77;107437;1251;107145;-64
2023/11/06 08:25:34;;;;;;;4.90;0.70;;;;;;;18.10;42.01;100145.37;107585;1253;99171;-62
2023/11/06 08:28:03;;;;;;;0.80;0.60;;;;;;;18.22;40.64;100152.25;107650;1253;100902;-63
2023/11/06 08:30:31;;;;;;;1.50;0.60;;;;;;;18.37;41.13;100150.27;107601;1255;113788;-62
2023/11/06 08:33:00;;;;;;;1.20;0.70;;;;;;;18.54;41.66;100148.95;107645;1254;109254;-63
2023/11/06 08:35:28;;;;;;;1.40;0.60;;;;;;;18.74;40.92;100151.36;107577;1255;107418;-62
2023/11/06 08:37:59;;;;;;;3.80;0.60;;;;;;;18.89;39.16;100152.97;107460;1253;99635;-63
2023/11/06 08:40:28;;;;;;;2.50;0.80;;;;;;;19.10;40.20;100150.89;107515;1255;99192;-63
2023/11/06 08:42:57;;;;;;;2.80;0.70;;;;;;;19.40;39.89;100152.63;107648;1254;112449;-63
2023/11/06 08:45:27;;;;;;;2.90;0.40;;;;;;;19.85;38.42;100157.09;107638;1255;109863;-62
2023/11/06 08:47:55;;;;;;;1.10;0.50;;;;;;;20.53;35.76;100153.70;107516;1253;107411;-62
2023/11/06 08:50:23;;;;;;;1.70;0.30;;;;;;;21.37;33.95;100147.89;107561;1251;99319;-63
2023/11/06 08:52:52;;;;;;;5.00;0.60;;;;;;;22.16;34.53;100149.35;107628;1251;99722;-62
2023/11/06 08:55:20;;;;;;;2.90;0.30;;;;;;;23.02;35.13;100152.23;107559;1252;113209;-63
2023/11/06 08:57:48;;;;;;;7.40;0.60;;;;;;;23.82;33.60;100158.99;107652;1253;109232;-63
2023/11/06 09:00:18;;;;;;;0.50;0.20;;;;;;;24.45;31.78;100163.56;107616;1251;108226;-63
2023/11/06 09:02:47;;;;;;;1.90;0.20;;;;;;;24.77;28.89;100171.58;107563;1251;99097;-62
2023/11/06 09:05:16;;;;;;;0.90;0.40;;;;;;;24.97;27.97;100178.20;107631;1251;99070;-63
2023/11/06 09:07:47;;;;;;;0.60;0.30;;;;;;;25.24;27.68;100173.84;107562;1252;113919;-62
2023/11/06 09:10:17;;;;;;;0.90;0.40;;;;;;;25.82;28.64;100176.27;107638;1253;109942;-62
2023/11/06 09:12:46;;;;;;;2.00;0.40;;;;;;;26.34;27.89;100179.60;107505;1253;107422;-62
2023/11/06 09:15:15;;;;;;;1.20;0.50;;;;;;;26.74;26.71;100178.83;107584;1251;99181;-64
2023/11/06 09:17:43;;;;;;;1.00;0.30;;;;;;;26.99;25.48;100186.73;107607;1251;99156;-63
2023/11/06 09:20:13;;;;;;;6.90;0.40;;;;;;;27.14;25.28;100181.26;107586;1252;113485;-63
2023/11/06 09:22:41;;;;;;;1.90;0.60;;;;;;;27.68;26.81;100181.83;107639;1252;109843;-63
2023/11/06 09:25:10;;;;;;;2.30;0.40;;;;;;;28.23;24.95;100178.63;107584;1253;107710;-63
2023/11/06 09:27:44;;;;;;;1.40;0.90;;;;;;;28.66;25.77;100173.88;107584;1253;99176;-63
2023/11/06 09:30:13;;;;;;;1.10;0.50;;;;;;;29.02;23.38;100179.01;107682;1251;99067;-64
2023/11/06 09:32:42;;;;;;;3.40;1.20;;;;;;;29.16;23.48;100178.64;107424;1251;113186;-63
2023/11/06 09:35:11;;;;;;;6.90;1.70;;;;;;;29.07;22.59;100177.86;107601;1254;108524;-62
2023/11/06 09:37:39;;;;;;;1.30;0.80;;;;;;;29.21;23.16;100183.14;107534;1251;108316;-63
2023/11/06 09:40:19;;;;;;;0.60;0.50;;;;;;;29.16;22.18;100182.25;107604;1252;99224;-64
2023/11/06 09:42:49;;;;;;;1.10;0.80;;;;;;;29.38;22.93;100181.66;107625;1254;99070;-64
2023/11/06 09:45:17;;;;;;;3.40;0.50;;;;;;;29.85;22.41;100183.77;107626;1251;112812;-63
2023/11/06 09:47:51;;;;;;;2.10;0.60;;;;;;;30.11;22.00;100187.48;107603;1251;109228;-63
2023/11/06 09:50:23;;;;;;;2.00;0.50;;;;;;;30.17;20.99;100182.64;107600;1251;108601;-63
2023/11/06 09:52:53;;;;;;;0.30;0.20;;;;;;;29.97;20.98;100199.21;107619;1255;99207;-65
2023/11/06 09:55:22;;;;;;;1.80;0.40;;;;;;;29.86;21.14;100199.01;107510;1251;99226;-63
2023/11/06 09:57:51;;;;;;;3.20;0.70;;;;;;;30.04;21.97;100188.21;107695;1251;113447;-63
2023/11/06 10:00:22;;;;;;;4.10;0.60;;;;;;;30.36;21.01;100191.68;107591;1251;109923;-64
2023/11/06 10:02:53;;;;;;;3.60;0.70;;;;;;;30.65;21.45;100194.09;107574;1255;107470;-62
2023/11/06 10:05:22;;;;;;;2.90;0.80;;;;;;;30.63;20.77;100192.16;107553;1252;99759;-64
2023/11/06 10:07:52;;;;;;;3.00;0.70;;;;;;;30.79;20.71;100194.30;107663;1251;99875;-63
2023/11/06 10:10:23;;;;;;;1.00;0.60;;;;;;;30.80;20.49;100189.52;107570;1253;112846;-63
2023/11/06 10:13:12;;;;;;;1.30;0.60;;;;;;;31.06;20.40;100199.08;107140;1251;600200;-63
2023/11/06 10:15:40;;;;;;;1.60;0.90;;;;;;;31.70;20.80;100201.38;107408;1252;108317;-64
2023/11/06 10:18:15;;;;;;;6.50;0.70;;;;;;;32.05;19.71;100201.61;107599;1253;99197;-63
2023/11/06 10:20:51;;;;;;;1.60;0.80;;;;;;;31.76;18.82;100207.63;107459;1251;99843;-63
2023/11/06 10:23:36;;;;;;;1.30;0.60;;;;;;;31.75;19.65;100207.42;107583;1251;112413;-64
2023/11/06 10:26:12;;;;;;;2.10;0.70;;;;;;;31.94;19.27;100205.85;107597;1253;108867;-64
2023/11/06 10:28:42;;;;;;;2.20;0.80;;;;;;;31.80;18.88;100205.66;107589;1253;108209;-64
2023/11/06 10:31:10;;;;;;;0.80;0.60;;;;;;;31.74;19.03;100207.26;107586;1253;99190;-63
2023/11/06 10:33:39;;;;;;;2.80;0.60;;;;;;;32.04;19.10;100197.66;107632;1253;99073;-64
2023/11/06 10:36:15;;;;;;;3.40;0.90;;;;;;;32.21;18.74;100198.15;107658;1252;112572;-64
2023/11/06 10:38:44;;;;;;;2.40;0.90;;;;;;;32.46;18.83;100209.41;107641;1251;110253;-65
2023/11/06 10:41:23;;;;;;;1.30;0.60;;;;;;;32.96;18.78;100201.85;107644;1256;108059;-62
2023/11/06 10:43:52;;;;;;;3.70;0.70;;;;;;;33.27;17.81;100202.34;107525;1253;99214;-63
2023/11/06 10:46:34;;;;;;;1.00;0.60;;;;;;;33.37;17.77;100200.27;107580;1256;99233;-64
2023/11/06 10:49:21;;;;;;;2.10;0.70;;;;;;;33.28;17.29;100206.41;107672;1251;112613;-65
2023/11/06 10:51:52;;;;;;;1.00;0.70;;;;;;;33.18;17.09;100207.49;107635;1251;109796;-65
2023/11/06 10:54:22;;;;;;;0.30;0.30;;;;;;;33.13;17.24;100205.73;107536;1255;107548;-63
2023/11/06 10:56:57;;;;;;;1.30;0.40;;;;;;;32.91;16.57;100208.34;107528;1253;99188;-65
2023/11/06 10:59:26;;;;;;;0.80;0.30;;;;;;;32.60;16.36;100206.23;107552;1251;99301;-64
2023/11/06 11:01:58;;;;;;;0.70;0.40;;;;;;;32.44;16.85;100213.10;107632;1250;112256;-63
2023/11/06 11:04:30;;;;;;;0.40;0.40;;;;;;;32.18;16.80;100212.11;107580;1252;111064;-63
2023/11/06 11:07:00;;;;;;;1.10;0.40;;;;;;;32.08;17.67;100210.30;107534;1251;107971;-64
2023/11/06 11:09:30;;;;;;;1.90;0.40;;;;;;;32.20;17.26;100212.88;107610;1251;99641;-64
2023/11/06 11:12:01;;;;;;;0.90;0.50;;;;;;;31.98;17.20;100207.48;107618;1255;99309;-64
2023/11/06 11:14:30;;;;;;;1.20;0.80;;;;;;;31.99;17.38;100210.46;107571;1253;113589;-63
2023/11/06 11:17:07;;;;;;;1.80;0.70;;;;;;;31.90;17.18;100211.37;107629;1251;108774;-63
2023/11/06 11:19:36;;;;;;;4.00;0.70;;;;;;;31.67;17.30;100216.48;107536;1251;108942;-64
2023/11/06 11:22:06;;;;;;;3.80;0.80;;;;;;;31.44;17.83;100220.27;107568;1251;99151;-64
2023/11/06 11:24:41;;;;;;;3.10;0.60;;;;;;;31.18;17.97;100223.13;107580;1253;99721;-64
2023/11/06 11:27:12;;;;;;;2.50;0.60;;;;;;;30.87;17.93;100229.05;107601;1255;112382;-63